This is the latest recevied weather packets stored in our database for station/object XE2G-31. If no packets are shown the sender has not sent any weather packets the latest 10 day(s).
| Time | Temp. | Humidity | Pressure | Rain* | Wind** | Luminosity | Snow |
|---|---|---|---|---|---|---|---|
| 1777858086 | 17.22° C | 65% | 874 hPa | - | - | - | - |
| 1777857139 | 17.78° C | 65% | 873 hPa | - | - | - | - |
| 1777856192 | 18.33° C | 65% | 873 hPa | - | - | - | - |
| 1777855246 | 18.89° C | 64% | 873 hPa | - | - | - | - |
| 1777854299 | 20° C | 59% | 873 hPa | - | - | - | - |
| 1777853352 | 19.44° C | 59% | 873 hPa | - | - | - | - |
| 1777852405 | 20.56° C | 58% | 873 hPa | - | - | - | - |
| 1777851458 | 20.56° C | 56% | 873 hPa | - | - | - | - |
| 1777850511 | 21.67° C | 55% | 873 hPa | - | - | - | - |
| 1777849564 | 21.67° C | 53% | 873 hPa | - | - | - | - |
| 1777848618 | 22.78° C | 53% | 873 hPa | - | - | - | - |
| 1777847671 | 21.67° C | 56% | 873 hPa | - | - | - | - |
| 1777846724 | 22.22° C | 51% | 873 hPa | - | - | - | - |
| 1777845777 | 21.67° C | 53% | 874 hPa | - | - | - | - |
| 1777844830 | 22.78° C | 51% | 874 hPa | - | - | - | - |
| 1777843883 | 23.89° C | 48% | 874 hPa | - | - | - | - |
| 1777842937 | 23.33° C | 53% | 874 hPa | - | - | - | - |
| 1777841990 | 24.44° C | 49% | 874 hPa | - | - | - | - |
| 1777841043 | 24.44° C | 51% | 875 hPa | - | - | - | - |
| 1777840096 | 22.78° C | 52% | 875 hPa | - | - | - | - |
| 1777838203 | 23.33° C | 50% | 875 hPa | - | - | - | - |
| 1777837256 | 24.44° C | 49% | 875 hPa | - | - | - | - |
| 1777836309 | 25° C | 49% | 875 hPa | - | - | - | - |
| 1777835362 | 22.22° C | 52% | 875 hPa | - | - | - | - |
| 1777834415 | 24.44° C | 50% | 876 hPa | - | - | - | - |
* Rain since midnight (hover to see other rain measurements)
** Current wind speed in m/s (hover to see current wind gust speed)